sensor_id;sensor_type;location;lat;lon;timestamp;pressure;altitude;pressure_sealevel;temperature;humidity
9110;BME280;4590;51.462;6.692;2024-03-22T05:30:59;101578.19;;;13.10;69.10
9110;BME280;4590;51.462;6.692;2024-03-22T05:33:25;101575.94;;;13.12;69.03
9110;BME280;4590;51.462;6.692;2024-03-22T05:35:50;101577.59;;;13.13;69.08
9110;BME280;4590;51.462;6.692;2024-03-22T05:38:15;101575.38;;;13.15;68.96
9110;BME280;4590;51.462;6.692;2024-03-22T05:40:40;101579.47;;;13.17;69.08
9110;BME280;4590;51.462;6.692;2024-03-22T05:43:06;101579.47;;;13.17;68.94
9110;BME280;4590;51.462;6.692;2024-03-22T05:45:32;101568.94;;;13.19;68.96
9110;BME280;4590;51.462;6.692;2024-03-22T05:47:58;101568.66;;;13.21;68.91
9110;BME280;4590;51.462;6.692;2024-03-22T05:50:24;101553.72;;;13.22;68.96
9110;BME280;4590;51.462;6.692;2024-03-22T05:52:49;101556.97;;;13.24;68.96
9110;BME280;4590;51.462;6.692;2024-03-22T05:55:15;101550.00;;;13.26;68.66
9110;BME280;4590;51.462;6.692;2024-03-22T05:57:40;101555.03;;;13.24;68.99
9110;BME280;4590;51.462;6.692;2024-03-22T06:00:06;101563.22;;;13.29;68.63
9110;BME280;4590;51.462;6.692;2024-03-22T06:02:32;101552.69;;;13.31;68.68
9110;BME280;4590;51.462;6.692;2024-03-22T06:04:58;101559.25;;;13.36;68.48
9110;BME280;4590;51.462;6.692;2024-03-22T06:07:24;101558.63;;;13.39;68.33
9110;BME280;4590;51.462;6.692;2024-03-22T06:09:49;101550.84;;;13.41;68.53
9110;BME280;4590;51.462;6.692;2024-03-22T06:12:15;101543.88;;;13.43;68.41
9110;BME280;4590;51.462;6.692;2024-03-22T06:14:41;101560.69;;;13.47;68.04
9110;BME280;4590;51.462;6.692;2024-03-22T06:17:10;101549.34;;;13.48;68.11
9110;BME280;4590;51.462;6.692;2024-03-22T06:19:36;101547.59;;;13.52;68.05
9110;BME280;4590;51.462;6.692;2024-03-22T06:22:02;101547.25;;;13.54;68.05
9110;BME280;4590;51.462;6.692;2024-03-22T06:24:27;101549.72;;;13.55;67.90
9110;BME280;4590;51.462;6.692;2024-03-22T06:26:53;101549.13;;;13.58;67.95
9110;BME280;4590;51.462;6.692;2024-03-22T06:29:18;101537.97;;;13.50;67.66
9110;BME280;4590;51.462;6.692;2024-03-22T06:31:43;101538.56;;;13.60;67.88
9110;BME280;4590;51.462;6.692;2024-03-22T06:34:08;101532.44;;;13.63;67.89
9110;BME280;4590;51.462;6.692;2024-03-22T06:36:34;101531.00;;;13.66;67.55
9110;BME280;4590;51.462;6.692;2024-03-22T06:38:59;101528.75;;;13.68;67.56
9110;BME280;4590;51.462;6.692;2024-03-22T06:41:25;101528.41;;;13.69;67.50
9110;BME280;4590;51.462;6.692;2024-03-22T06:43:53;101529.75;;;13.72;67.45
9110;BME280;4590;51.462;6.692;2024-03-22T06:46:18;101529.44;;;13.74;67.37
9110;BME280;4590;51.462;6.692;2024-03-22T06:48:45;101528.53;;;13.78;67.20
9110;BME280;4590;51.462;6.692;2024-03-22T06:51:10;101527.28;;;13.70;67.27
9110;BME280;4590;51.462;6.692;2024-03-22T06:53:35;101536.22;;;13.81;67.18
9110;BME280;4590;51.462;6.692;2024-03-22T06:56:01;101542.75;;;13.85;67.12
9110;BME280;4590;51.462;6.692;2024-03-22T06:58:26;101526.88;;;13.91;67.14
9110;BME280;4590;51.462;6.692;2024-03-22T07:00:51;101527.06;;;13.94;66.95
9110;BME280;4590;51.462;6.692;2024-03-22T07:03:16;101544.72;;;13.98;67.07
9110;BME280;4590;51.462;6.692;2024-03-22T07:05:43;101538.72;;;14.05;66.91
9110;BME280;4590;51.462;6.692;2024-03-22T07:08:08;101535.88;;;14.10;66.84
9110;BME280;4590;51.462;6.692;2024-03-22T07:10:33;101549.59;;;14.15;66.84
9110;BME280;4590;51.462;6.692;2024-03-22T07:12:59;101548.34;;;14.21;66.61
9110;BME280;4590;51.462;6.692;2024-03-22T07:15:24;101538.91;;;14.22;66.42
9110;BME280;4590;51.462;6.692;2024-03-22T07:17:49;101544.66;;;14.26;66.41
9110;BME280;4590;51.462;6.692;2024-03-22T07:20:15;101544.19;;;14.32;66.32
9110;BME280;4590;51.462;6.692;2024-03-22T07:22:41;101541.94;;;14.34;66.25
9110;BME280;4590;51.462;6.692;2024-03-22T07:25:06;101544.59;;;14.39;66.08
9110;BME280;4590;51.462;6.692;2024-03-22T07:27:31;101529.03;;;14.44;66.09
9110;BME280;4590;51.462;6.692;2024-03-22T07:29:57;101532.00;;;14.47;65.62
9110;BME280;4590;51.462;6.692;2024-03-22T07:32:23;101521.59;;;14.53;65.46
9110;BME280;4590;51.462;6.692;2024-03-22T07:34:49;101514.31;;;14.57;65.48
9110;BME280;4590;51.462;6.692;2024-03-22T07:37:14;101527.22;;;14.61;65.30
9110;BME280;4590;51.462;6.692;2024-03-22T07:39:40;101519.91;;;14.65;65.13
9110;BME280;4590;51.462;6.692;2024-03-22T07:42:05;101525.63;;;14.69;64.86
9110;BME280;4590;51.462;6.692;2024-03-22T07:44:32;101521.13;;;14.73;64.79
9110;BME280;4590;51.462;6.692;2024-03-22T07:46:57;101528.81;;;14.76;64.66
9110;BME280;4590;51.462;6.692;2024-03-22T07:49:22;101539.56;;;14.78;64.42
9110;BME280;4590;51.462;6.692;2024-03-22T07:51:48;101535.84;;;14.82;64.29
9110;BME280;4590;51.462;6.692;2024-03-22T07:54:13;101527.72;;;14.86;64.31
9110;BME280;4590;51.462;6.692;2024-03-22T07:56:39;101534.88;;;14.87;63.90
9110;BME280;4590;51.462;6.692;2024-03-22T07:59:05;101535.59;;;14.92;63.76
9110;BME280;4590;51.462;6.692;2024-03-22T08:01:30;101529.38;;;14.95;63.63
9110;BME280;4590;51.462;6.692;2024-03-22T08:10:52;101528.75;;;14.98;62.32
9110;BME280;4590;51.462;6.692;2024-03-22T08:16:55;101514.59;;;15.00;61.82
9110;BME280;4590;51.462;6.692;2024-03-22T08:26:54;101525.06;;;15.03;61.26
9110;BME280;4590;51.462;6.692;2024-03-22T08:30:31;101528.63;;;15.03;60.99
9110;BME280;4590;51.462;6.692;2024-03-22T08:40:29;101511.91;;;15.17;60.26
9110;BME280;4590;51.462;6.692;2024-03-22T08:56:35;101504.69;;;15.47;59.48
9110;BME280;4590;51.462;6.692;2024-03-22T08:59:28;101502.75;;;15.48;59.27
9110;BME280;4590;51.462;6.692;2024-03-22T09:01:53;101498.19;;;15.52;59.10
9110;BME280;4590;51.462;6.692;2024-03-22T09:04:19;101498.25;;;15.60;59.07
9110;BME280;4590;51.462;6.692;2024-03-22T09:06:46;101506.94;;;15.67;58.96
9110;BME280;4590;51.462;6.692;2024-03-22T09:09:12;101490.28;;;15.76;58.70
9110;BME280;4590;51.462;6.692;2024-03-22T09:11:40;101487.22;;;15.86;58.40
9110;BME280;4590;51.462;6.692;2024-03-22T09:14:05;101481.22;;;16.01;58.71
9110;BME280;4590;51.462;6.692;2024-03-22T09:16:32;101476.47;;;16.10;57.87
9110;BME280;4590;51.462;6.692;2024-03-22T09:18:58;101478.59;;;16.22;57.64
9110;BME280;4590;51.462;6.692;2024-03-22T09:21:23;101479.41;;;16.40;57.92
9110;BME280;4590;51.462;6.692;2024-03-22T09:23:49;101471.72;;;16.54;57.33
9110;BME280;4590;51.462;6.692;2024-03-22T09:26:15;101478.28;;;16.67;56.77
9110;BME280;4590;51.462;6.692;2024-03-22T09:28:40;101474.66;;;16.75;56.54
9110;BME280;4590;51.462;6.692;2024-03-22T09:31:07;101467.78;;;16.81;56.26
9110;BME280;4590;51.462;6.692;2024-03-22T09:33:33;101469.44;;;16.82;55.79
9110;BME280;4590;51.462;6.692;2024-03-22T09:35:59;101468.28;;;16.74;53.83
9110;BME280;4590;51.462;6.692;2024-03-22T09:38:24;101467.91;;;16.84;56.04
9110;BME280;4590;51.462;6.692;2024-03-22T09:40:50;101476.41;;;16.88;56.00
9110;BME280;4590;51.462;6.692;2024-03-22T09:43:19;101468.25;;;16.92;55.78
9110;BME280;4590;51.462;6.692;2024-03-22T09:45:45;101465.63;;;16.95;55.79
9110;BME280;4590;51.462;6.692;2024-03-22T09:48:11;101463.06;;;16.81;53.23
9110;BME280;4590;51.462;6.692;2024-03-22T09:50:38;101451.06;;;16.98;55.51
9110;BME280;4590;51.462;6.692;2024-03-22T09:53:05;101449.91;;;16.99;55.46
9110;BME280;4590;51.462;6.692;2024-03-22T09:55:32;101444.81;;;17.01;55.38
9110;BME280;4590;51.462;6.692;2024-03-22T09:58:00;101454.78;;;17.02;55.06
9110;BME280;4590;51.462;6.692;2024-03-22T10:00:27;101440.41;;;17.00;54.93
9110;BME280;4590;51.462;6.692;2024-03-22T10:02:53;101442.41;;;17.00;54.93
9110;BME280;4590;51.462;6.692;2024-03-22T10:05:20;101437.16;;;16.98;54.84
9110;BME280;4590;51.462;6.692;2024-03-22T10:07:45;101441.56;;;16.99;54.80
9110;BME280;4590;51.462;6.692;2024-03-22T10:10:11;101437.63;;;17.00;55.02
9110;BME280;4590;51.462;6.692;2024-03-22T10:12:37;101441.38;;;17.04;54.98
9110;BME280;4590;51.462;6.692;2024-03-22T10:15:04;101436.69;;;16.96;54.79
9110;BME280;4590;51.462;6.692;2024-03-22T10:17:30;101434.34;;;17.07;54.72
9110;BME280;4590;51.462;6.692;2024-03-22T10:19:55;101429.09;;;17.05;54.71
9110;BME280;4590;51.462;6.692;2024-03-22T10:22:21;101436.63;;;17.05;54.83
9110;BME280;4590;51.462;6.692;2024-03-22T10:24:49;101423.38;;;17.02;54.59
9110;BME280;4590;51.462;6.692;2024-03-22T10:27:14;101426.50;;;17.00;54.64
9110;BME280;4590;51.462;6.692;2024-03-22T10:29:40;101422.13;;;16.99;54.71
9110;BME280;4590;51.462;6.692;2024-03-22T10:32:06;101419.34;;;16.99;54.71
9110;BME280;4590;51.462;6.692;2024-03-22T10:34:32;101420.94;;;17.00;54.91
9110;BME280;4590;51.462;6.692;2024-03-22T10:36:59;101417.41;;;16.91;53.39
9110;BME280;4590;51.462;6.692;2024-03-22T10:39:26;101408.00;;;17.04;54.96
9110;BME280;4590;51.462;6.692;2024-03-22T10:41:51;101410.13;;;17.07;54.75
9110;BME280;4590;51.462;6.692;2024-03-22T10:44:17;101402.28;;;17.09;54.78
9110;BME280;4590;51.462;6.692;2024-03-22T10:46:48;101401.78;;;17.07;54.46
9110;BME280;4590;51.462;6.692;2024-03-22T10:49:20;101403.91;;;17.10;54.38
9110;BME280;4590;51.462;6.692;2024-03-22T10:51:48;101392.44;;;17.12;54.39
9110;BME280;4590;51.462;6.692;2024-03-22T10:54:19;101394.56;;;17.15;54.25
9110;BME280;4590;51.462;6.692;2024-03-22T10:56:45;101402.56;;;17.16;54.14
9110;BME280;4590;51.462;6.692;2024-03-22T10:59:18;101402.13;;;17.06;53.24
9110;BME280;4590;51.462;6.692;2024-03-22T11:01:45;101396.88;;;17.13;54.27
9110;BME280;4590;51.462;6.692;2024-03-22T11:04:11;101394.91;;;17.13;54.38
9110;BME280;4590;51.462;6.692;2024-03-22T11:06:38;101379.69;;;17.11;54.03
9110;BME280;4590;51.462;6.692;2024-03-22T11:09:03;101391.16;;;17.09;53.98
9110;BME280;4590;51.462;6.692;2024-03-22T11:11:31;101387.56;;;17.09;53.71
9110;BME280;4590;51.462;6.692;2024-03-22T11:14:02;101377.91;;;17.06;53.52
9110;BME280;4590;51.462;6.692;2024-03-22T11:16:28;101398.03;;;17.03;53.68
9110;BME280;4590;51.462;6.692;2024-03-22T11:18:53;101401.16;;;17.02;53.85
9110;BME280;4590;51.462;6.692;2024-03-22T11:21:18;101386.78;;;17.00;53.88
9110;BME280;4590;51.462;6.692;2024-03-22T11:23:47;101390.56;;;16.95;53.78
9110;BME280;4590;51.462;6.692;2024-03-22T11:26:13;101396.94;;;16.96;53.90
9110;BME280;4590;51.462;6.692;2024-03-22T11:28:39;101393.53;;;16.90;53.80
9110;BME280;4590;51.462;6.692;2024-03-22T11:31:05;101391.59;;;16.82;53.70
9110;BME280;4590;51.462;6.692;2024-03-22T11:33:31;101385.41;;;16.76;53.79
9110;BME280;4590;51.462;6.692;2024-03-22T11:36:01;101395.38;;;16.69;53.27
9110;BME280;4590;51.462;6.692;2024-03-22T11:38:27;101396.06;;;16.66;53.80
9110;BME280;4590;51.462;6.692;2024-03-22T11:40:55;101398.66;;;16.62;53.86
9110;BME280;4590;51.462;6.692;2024-03-22T11:43:27;101373.81;;;16.57;53.93
9110;BME280;4590;51.462;6.692;2024-03-22T11:45:55;101383.50;;;16.51;54.15
9110;BME280;4590;51.462;6.692;2024-03-22T11:48:22;101387.59;;;16.45;54.08
9110;BME280;4590;51.462;6.692;2024-03-22T11:50:48;101385.13;;;16.43;54.10
9110;BME280;4590;51.462;6.692;2024-03-22T11:53:16;101391.22;;;16.37;54.38
9110;BME280;4590;51.462;6.692;2024-03-22T11:55:41;101387.78;;;16.31;54.50
9110;BME280;4590;51.462;6.692;2024-03-22T11:58:09;101379.63;;;16.26;54.43
9110;BME280;4590;51.462;6.692;2024-03-22T12:00:34;101388.59;;;16.23;54.60
9110;BME280;4590;51.462;6.692;2024-03-22T12:02:59;101388.78;;;16.18;54.85
9110;BME280;4590;51.462;6.692;2024-03-22T12:05:25;101391.06;;;16.16;55.13
9110;BME280;4590;51.462;6.692;2024-03-22T12:07:51;101394.50;;;16.13;54.98
9110;BME280;4590;51.462;6.692;2024-03-22T12:10:16;101397.28;;;16.04;55.16
9110;BME280;4590;51.462;6.692;2024-03-22T12:12:42;101379.00;;;16.03;55.36
9110;BME280;4590;51.462;6.692;2024-03-22T12:15:07;101388.28;;;15.90;55.99
9110;BME280;4590;51.462;6.692;2024-03-22T12:17:32;101389.78;;;15.88;55.88
9110;BME280;4590;51.462;6.692;2024-03-22T12:20:01;101383.25;;;15.84;56.38
9110;BME280;4590;51.462;6.692;2024-03-22T12:22:26;101385.03;;;15.79;56.69
9110;BME280;4590;51.462;6.692;2024-03-22T12:24:51;101380.31;;;15.71;56.76
9110;BME280;4590;51.462;6.692;2024-03-22T12:27:17;101372.94;;;15.67;57.00
9110;BME280;4590;51.462;6.692;2024-03-22T12:29:42;101367.22;;;15.63;56.98
9110;BME280;4590;51.462;6.692;2024-03-22T12:32:07;101374.72;;;15.63;57.09
9110;BME280;4590;51.462;6.692;2024-03-22T12:34:33;101363.47;;;15.59;57.64
9110;BME280;4590;51.462;6.692;2024-03-22T12:37:03;101366.25;;;15.59;57.64
9110;BME280;4590;51.462;6.692;2024-03-22T12:39:28;101357.25;;;15.54;57.86
9110;BME280;4590;51.462;6.692;2024-03-22T12:41:53;101354.19;;;15.55;57.47
9110;BME280;4590;51.462;6.692;2024-03-22T12:44:20;101356.44;;;15.53;57.51
9110;BME280;4590;51.462;6.692;2024-03-22T12:46:46;101348.94;;;15.54;57.65
9110;BME280;4590;51.462;6.692;2024-03-22T12:49:11;101349.75;;;15.54;57.82
9110;BME280;4590;51.462;6.692;2024-03-22T12:51:37;101336.69;;;15.55;57.82
9110;BME280;4590;51.462;6.692;2024-03-22T13:35:48;101287.47;;;14.86;58.45
9110;BME280;4590;51.462;6.692;2024-03-22T13:55:36;101263.34;;;14.78;59.13
9110;BME280;4590;51.462;6.692;2024-03-22T13:58:01;101258.94;;;14.77;59.09
9110;BME280;4590;51.462;6.692;2024-03-22T14:00:27;101256.69;;;14.79;59.20
9110;BME280;4590;51.462;6.692;2024-03-22T14:02:52;101249.97;;;14.80;59.22
9110;BME280;4590;51.462;6.692;2024-03-22T14:05:20;101257.16;;;14.81;59.52
9110;BME280;4590;51.462;6.692;2024-03-22T14:07:46;101248.50;;;14.83;59.51
9110;BME280;4590;51.462;6.692;2024-03-22T14:10:14;101246.56;;;14.83;59.31
9110;BME280;4590;51.462;6.692;2024-03-22T14:12:42;101256.00;;;14.82;59.31
9110;BME280;4590;51.462;6.692;2024-03-22T14:15:08;101250.78;;;14.81;59.33
9110;BME280;4590;51.462;6.692;2024-03-22T14:17:34;101251.47;;;14.78;59.53
9110;BME280;4590;51.462;6.692;2024-03-22T14:19:59;101247.38;;;14.75;59.39
9110;BME280;4590;51.462;6.692;2024-03-22T14:22:25;101245.25;;;14.72;60.04
9110;BME280;4590;51.462;6.692;2024-03-22T14:24:51;101247.50;;;14.70;60.23
9110;BME280;4590;51.462;6.692;2024-03-22T14:27:16;101251.25;;;14.65;60.49
9110;BME280;4590;51.462;6.692;2024-03-22T14:29:41;101242.28;;;14.60;60.36
9110;BME280;4590;51.462;6.692;2024-03-22T14:32:07;101234.09;;;14.55;60.92
9110;BME280;4590;51.462;6.692;2024-03-22T14:34:33;101233.13;;;14.51;61.06
9110;BME280;4590;51.462;6.692;2024-03-22T14:36:58;101238.16;;;14.49;61.00
9110;BME280;4590;51.462;6.692;2024-03-22T14:39:23;101232.47;;;14.45;61.47
9110;BME280;4590;51.462;6.692;2024-03-22T14:41:49;101247.13;;;14.46;61.34
9110;BME280;4590;51.462;6.692;2024-03-22T14:44:14;101235.72;;;14.47;61.79
9110;BME280;4590;51.462;6.692;2024-03-22T14:46:40;101252.81;;;14.49;61.73
9110;BME280;4590;51.462;6.692;2024-03-22T14:49:06;101237.50;;;14.43;61.91
9110;BME280;4590;51.462;6.692;2024-03-22T14:51:31;101217.63;;;14.41;61.65
9110;BME280;4590;51.462;6.692;2024-03-22T14:53:56;101221.00;;;14.38;62.07
9110;BME280;4590;51.462;6.692;2024-03-22T14:56:23;101219.34;;;14.37;62.55
9110;BME280;4590;51.462;6.692;2024-03-22T14:58:49;101218.53;;;14.36;62.58
9110;BME280;4590;51.462;6.692;2024-03-22T15:01:15;101214.13;;;14.35;62.87
9110;BME280;4590;51.462;6.692;2024-03-22T15:03:40;101212.50;;;14.34;62.99
9110;BME280;4590;51.462;6.692;2024-03-22T15:06:05;101197.69;;;14.30;63.52
9110;BME280;4590;51.462;6.692;2024-03-22T15:08:31;101199.97;;;14.28;63.75
9110;BME280;4590;51.462;6.692;2024-03-22T15:10:57;101203.53;;;14.29;63.85
9110;BME280;4590;51.462;6.692;2024-03-22T15:13:23;101192.78;;;14.27;64.20
9110;BME280;4590;51.462;6.692;2024-03-22T15:15:58;101191.78;;;14.23;64.49
9110;BME280;4590;51.462;6.692;2024-03-22T15:18:24;101202.53;;;14.25;64.76
9110;BME280;4590;51.462;6.692;2024-03-22T15:20:51;101197.31;;;14.23;64.70
9110;BME280;4590;51.462;6.692;2024-03-22T15:23:17;101194.56;;;14.23;64.93
9110;BME280;4590;51.462;6.692;2024-03-22T15:25:43;101187.38;;;14.22;64.93
9110;BME280;4590;51.462;6.692;2024-03-22T15:28:09;101168.16;;;14.17;65.13
9110;BME280;4590;51.462;6.692;2024-03-22T15:35:47;101173.69;;;14.17;65.23
9110;BME280;4590;51.462;6.692;2024-03-22T15:38:15;101163.78;;;14.16;65.21
9110;BME280;4590;51.462;6.692;2024-03-22T15:40:41;101161.34;;;14.15;65.65
9110;BME280;4590;51.462;6.692;2024-03-22T15:43:12;101160.84;;;14.13;65.81
9110;BME280;4590;51.462;6.692;2024-03-22T15:45:38;101161.47;;;14.10;65.96
9110;BME280;4590;51.462;6.692;2024-03-22T15:48:06;101160.97;;;14.08;66.28
9110;BME280;4590;51.462;6.692;2024-03-22T15:50:33;101173.97;;;14.07;66.23
9110;BME280;4590;51.462;6.692;2024-03-22T15:52:59;101177.38;;;14.04;66.43
9110;BME280;4590;51.462;6.692;2024-03-22T15:55:26;101180.47;;;14.02;66.79
9110;BME280;4590;51.462;6.692;2024-03-22T15:57:51;101159.81;;;14.00;66.86
9110;BME280;4590;51.462;6.692;2024-03-22T16:00:21;101159.63;;;13.96;67.04
9110;BME280;4590;51.462;6.692;2024-03-22T16:02:46;101172.94;;;13.94;67.16
9110;BME280;4590;51.462;6.692;2024-03-22T16:05:17;101164.16;;;13.92;67.38
9110;BME280;4590;51.462;6.692;2024-03-22T16:07:46;101151.78;;;13.90;67.58
9110;BME280;4590;51.462;6.692;2024-03-22T16:10:12;101140.72;;;13.90;67.61
9110;BME280;4590;51.462;6.692;2024-03-22T16:12:37;101141.50;;;13.82;69.63
9110;BME280;4590;51.462;6.692;2024-03-22T16:15:03;101140.22;;;13.88;68.01
9110;BME280;4590;51.462;6.692;2024-03-22T16:17:30;101141.84;;;13.89;68.15
9110;BME280;4590;51.462;6.692;2024-03-22T16:19:55;101135.81;;;13.87;68.13
9110;BME280;4590;51.462;6.692;2024-03-22T16:22:21;101131.91;;;13.88;68.31
9110;BME280;4590;51.462;6.692;2024-03-22T16:24:46;101134.66;;;13.88;68.24
9110;BME280;4590;51.462;6.692;2024-03-22T16:27:11;101125.56;;;13.87;68.40
9110;BME280;4590;51.462;6.692;2024-03-22T16:29:36;101121.16;;;13.86;68.70
9110;BME280;4590;51.462;6.692;2024-03-22T16:32:02;101117.91;;;13.84;68.74
9110;BME280;4590;51.462;6.692;2024-03-22T16:34:29;101120.19;;;13.82;68.48
9110;BME280;4590;51.462;6.692;2024-03-22T16:36:58;101115.91;;;13.76;68.87
9110;BME280;4590;51.462;6.692;2024-03-22T16:39:23;101113.16;;;13.76;68.83
9110;BME280;4590;51.462;6.692;2024-03-22T16:41:49;101114.28;;;13.75;69.03
9110;BME280;4590;51.462;6.692;2024-03-22T16:44:15;101109.38;;;13.72;69.12
9110;BME280;4590;51.462;6.692;2024-03-22T16:46:42;101108.41;;;13.68;69.26
9110;BME280;4590;51.462;6.692;2024-03-22T16:49:07;101107.09;;;13.65;69.37
9110;BME280;4590;51.462;6.692;2024-03-22T17:33:38;101098.78;;;13.34;70.71
9110;BME280;4590;51.462;6.692;2024-03-22T17:36:05;101103.31;;;13.30;70.79
9110;BME280;4590;51.462;6.692;2024-03-22T17:38:30;101105.88;;;13.27;70.39
9110;BME280;4590;51.462;6.692;2024-03-22T17:40:55;101105.53;;;13.20;70.77
9110;BME280;4590;51.462;6.692;2024-03-22T17:43:21;101105.66;;;13.15;70.64
9110;BME280;4590;51.462;6.692;2024-03-22T17:45:55;101105.88;;;13.05;70.94
9110;BME280;4590;51.462;6.692;2024-03-22T17:48:20;101105.56;;;13.06;70.69
9110;BME280;4590;51.462;6.692;2024-03-22T17:50:46;101101.50;;;13.04;70.38
9110;BME280;4590;51.462;6.692;2024-03-22T17:53:11;101090.75;;;13.02;70.74
9110;BME280;4590;51.462;6.692;2024-03-22T17:55:36;101092.69;;;13.02;70.79
9110;BME280;4590;51.462;6.692;2024-03-22T17:58:01;101082.78;;;13.00;71.14
9110;BME280;4590;51.462;6.692;2024-03-22T18:00:27;101097.53;;;12.96;71.03
9110;BME280;4590;51.462;6.692;2024-03-22T18:02:52;101099.59;;;12.90;71.36
9110;BME280;4590;51.462;6.692;2024-03-22T18:05:17;101109.34;;;12.88;71.27
9110;BME280;4590;51.462;6.692;2024-03-22T18:07:43;101099.41;;;12.87;70.96
9110;BME280;4590;51.462;6.692;2024-03-22T18:10:08;101108.00;;;12.85;71.03
9110;BME280;4590;51.462;6.692;2024-03-22T18:12:33;101102.28;;;12.82;70.48
9110;BME280;4590;51.462;6.692;2024-03-22T18:14:59;101109.84;;;12.76;71.05
9110;BME280;4590;51.462;6.692;2024-03-22T18:17:24;101103.47;;;12.67;71.07
9110;BME280;4590;51.462;6.692;2024-03-22T18:19:49;101102.44;;;12.63;70.92
9110;BME280;4590;51.462;6.692;2024-03-22T18:22:15;101097.22;;;12.61;70.59
9110;BME280;4590;51.462;6.692;2024-03-22T18:24:41;101099.47;;;12.59;70.72
9110;BME280;4590;51.462;6.692;2024-03-22T18:27:06;101098.19;;;12.57;70.64
9110;BME280;4590;51.462;6.692;2024-03-22T18:29:33;101102.19;;;12.51;71.84
9110;BME280;4590;51.462;6.692;2024-03-22T18:31:58;101092.66;;;12.57;70.94
9110;BME280;4590;51.462;6.692;2024-03-22T18:34:23;101097.06;;;12.58;70.86
9110;BME280;4590;51.462;6.692;2024-03-22T18:36:49;101093.97;;;12.59;70.86
9110;BME280;4590;51.462;6.692;2024-03-22T18:39:14;101110.22;;;12.61;71.32
9110;BME280;4590;51.462;6.692;2024-03-22T18:41:40;101103.25;;;12.63;70.89
9110;BME280;4590;51.462;6.692;2024-03-22T18:44:06;101101.63;;;12.62;70.92
9110;BME280;4590;51.462;6.692;2024-03-22T18:46:32;101095.78;;;12.64;71.12
9110;BME280;4590;51.462;6.692;2024-03-22T18:48:57;101096.63;;;12.64;71.41
9110;BME280;4590;51.462;6.692;2024-03-22T18:51:22;101086.38;;;12.65;70.85
9110;BME280;4590;51.462;6.692;2024-03-22T18:53:48;101080.66;;;12.61;70.63
9110;BME280;4590;51.462;6.692;2024-03-22T18:56:13;101083.75;;;12.60;70.81
9110;BME280;4590;51.462;6.692;2024-03-22T18:58:38;101087.66;;;12.59;70.87
9110;BME280;4590;51.462;6.692;2024-03-22T19:01:04;101082.13;;;12.59;70.76
9110;BME280;4590;51.462;6.692;2024-03-22T19:03:29;101089.25;;;12.60;70.91
9110;BME280;4590;51.462;6.692;2024-03-22T19:05:54;101086.50;;;12.60;71.05
9110;BME280;4590;51.462;6.692;2024-03-22T19:08:20;101078.56;;;12.58;70.93
9110;BME280;4590;51.462;6.692;2024-03-22T19:10:47;101074.16;;;12.57;70.69
9110;BME280;4590;51.462;6.692;2024-03-22T19:13:12;101064.25;;;12.56;70.88
9110;BME280;4590;51.462;6.692;2024-03-22T19:15:37;101057.91;;;12.56;70.92
9110;BME280;4590;51.462;6.692;2024-03-22T19:18:06;101060.66;;;12.56;71.06
9110;BME280;4590;51.462;6.692;2024-03-22T19:20:31;101076.09;;;12.57;71.22
9110;BME280;4590;51.462;6.692;2024-03-22T19:22:57;101054.84;;;12.57;71.24
9110;BME280;4590;51.462;6.692;2024-03-22T19:25:23;101052.06;;;12.57;71.19
9110;BME280;4590;51.462;6.692;2024-03-22T19:27:48;101048.50;;;12.57;71.04
9110;BME280;4590;51.462;6.692;2024-03-22T19:30:14;101057.91;;;12.56;71.24
9110;BME280;4590;51.462;6.692;2024-03-22T19:32:39;101048.81;;;12.55;71.29
9110;BME280;4590;51.462;6.692;2024-03-22T19:35:04;101045.53;;;12.53;71.40
9110;BME280;4590;51.462;6.692;2024-03-22T19:37:30;101035.63;;;12.52;71.39
9110;BME280;4590;51.462;6.692;2024-03-22T19:39:55;101032.03;;;12.52;71.54
9110;BME280;4590;51.462;6.692;2024-03-22T19:42:21;101048.59;;;12.52;71.63
9110;BME280;4590;51.462;6.692;2024-03-22T19:44:47;101045.34;;;12.50;71.44
9110;BME280;4590;51.462;6.692;2024-03-22T19:47:12;101044.31;;;12.46;71.44
9110;BME280;4590;51.462;6.692;2024-03-22T19:49:37;101033.28;;;12.46;71.66
9110;BME280;4590;51.462;6.692;2024-03-22T19:52:03;101037.69;;;12.47;71.59
9110;BME280;4590;51.462;6.692;2024-03-22T19:54:31;101026.63;;;12.47;71.81
9110;BME280;4590;51.462;6.692;2024-03-22T19:56:57;101023.06;;;12.46;71.63
9110;BME280;4590;51.462;6.692;2024-03-22T19:59:23;101026.94;;;12.45;71.55
9110;BME280;4590;51.462;6.692;2024-03-22T20:01:48;101025.31;;;12.44;71.83
9110;BME280;4590;51.462;6.692;2024-03-22T20:04:13;101030.84;;;12.44;71.70
9110;BME280;4590;51.462;6.692;2024-03-22T20:06:39;101020.13;;;12.43;71.66
9110;BME280;4590;51.462;6.692;2024-03-22T20:09:04;101027.59;;;12.42;71.79
9110;BME280;4590;51.462;6.692;2024-03-22T20:11:33;101038.94;;;12.41;71.94
9110;BME280;4590;51.462;6.692;2024-03-22T20:13:58;101035.38;;;12.40;72.06
9110;BME280;4590;51.462;6.692;2024-03-22T20:16:24;101021.88;;;12.39;71.48
9110;BME280;4590;51.462;6.692;2024-03-22T20:18:49;101015.53;;;12.38;71.86
9110;BME280;4590;51.462;6.692;2024-03-22T20:21:14;101009.50;;;12.36;71.51
9110;BME280;4590;51.462;6.692;2024-03-22T20:23:39;101012.88;;;12.33;71.36
9110;BME280;4590;51.462;6.692;2024-03-22T20:26:05;101009.94;;;12.29;71.28
9110;BME280;4590;51.462;6.692;2024-03-22T20:28:30;101009.25;;;12.24;71.48
9110;BME280;4590;51.462;6.692;2024-03-22T20:30:55;101015.06;;;12.22;71.43
9110;BME280;4590;51.462;6.692;2024-03-22T20:33:21;101010.47;;;12.18;71.03
9110;BME280;4590;51.462;6.692;2024-03-22T20:35:47;101012.22;;;12.14;71.26
